WEATHER DATA

TODAY
Time Temp. Dewp. Hum. Wind dir Wind speed Wind gust Bar. 1h Prec. 24h Prec.
00:02 6.1 2.2 76 90 0.3 0.8 1011.7 0.0000 0.0000
00:22 5.8 2.1 77 90 0.3 1.1 1011.5 0.0000 0.0000
00:33 5.7 2.2 78 90 0.3 1.1 1011.4 0.0000 0.0000
00:42 5.8 2.3 78 90 0.3 1.1 1011.5 0.0000 0.0000
00:52 5.8 2.3 78 90 0.3 0.8 1011.5 0.0000 0.0000
01:02 5.7 2.3 79 90 0.3 1.1 1011.6 0.0000 0.0000
01:13 5.7 2.3 79 90 0.3 0.8 1011.7 0.0000 0.0000
01:22 5.7 2.3 79 90 0.3 1.1 1011.7 0.0000 0.0000
01:32 5.7 2.5 80 90 0.3 1.1 1011.6 0.0000 0.0000
01:43 5.9 2.9 81 270 0.3 1.4 1011.8 0.0000 0.0000
01:53 6.2 3.2 81 237 0.8 2.5 1011.9 0.0000 0.0000
02:02 6.4 3.4 81 235 0.8 1.7 1012 0.0000 0.0000
02:13 6.6 3.6 81 236 1.1 2.5 1012.1 0.0000 0.0000
02:23 6.8 3.9 82 230 1.1 2.2 1012.1 0.0000 0.0000
02:33 7 4.1 82 231 1.1 2.5 1012 0.0000 0.0000
02:42 7.1 4.2 82 229 0.8 2.5 1011.9 0.0000 0.0000
02:53 7.1 4.2 82 233 1.1 2.5 1011.9 0.0000 0.0000
03:03 7.2 4.3 82 229 1.1 3.3 1012 0.0000 0.0000
03:13 7.2 4.3 82 229 0.8 2.2 1011.8 0.1010 0.1000
03:23 7.2 4.3 82 227 0.8 2.5 1011.7 0.1010 0.1000
03:33 7.1 4.4 83 225 0.8 2.2 1011.6 0.1010 0.1000
03:43 7.1 4.4 83 227 0.8 2.2 1011.7 0.2020 0.2000
03:53 7 4.3 83 237 0.8 1.7 1011.6 0.2020 0.2000
04:04 6.9 4.2 83 225 0.8 2.2 1011.6 0.2020 0.2000
04:13 6.9 4.2 83 217 0.8 1.7 1011.5 0.1010 0.2000
04:23 6.8 4.1 83 212 0.8 2.2 1011.7 0.1010 0.2000
04:34 6.8 4.1 83 225 0.8 2.8 1011.5 0.1010 0.2000
04:44 6.8 4.3 84 241 0.8 2.5 1011.7 0.0000 0.2000
04:53 6.7 4.2 84 221 0.8 2.8 1011.7 0.0000 0.2000
05:03 6.7 4.2 84 232 0.8 2.5 1011.8 0.0000 0.2000
05:14 6.7 4.2 84 232 0.8 2.5 1012.1 0.0000 0.2000
05:24 6.7 4.2 84 236 0.8 3.3 1011.9 0.0000 0.2000
05:33 6.7 4.2 84 234 0.8 3.6 1011.9 0.0000 0.2000
05:44 6.7 4.2 84 232 1.4 3.9 1012 0.0000 0.2000
05:54 6.8 4.3 84 239 1.4 2.8 1012 0.0000 0.2000
06:04 6.8 4.3 84 236 1.4 5 1012 0.0000 0.2000
06:14 6.7 4.2 84 234 1.4 5 1012 0.0000 0.2000
06:24 6.7 4.2 84 237 1.1 2.8 1012 0.0000 0.2000
06:34 6.6 4.1 84 234 1.4 3.6 1012 0.0000 0.2000
06:44 6.6 4.1 84 237 1.4 3.6 1012 0.0000 0.2000
06:54 6.6 4.1 84 237 1.4 4.7 1012.1 0.0000 0.2000
07:04 6.6 4.1 84 232 1.7 5 1012.1 0.0000 0.2000
07:14 6.5 4 84 235 1.1 4.2 1012.2 0.0000 0.2000
07:24 6.5 4 84 234 1.4 5.3 1012.4 0.0000 0.2000
07:35 6.4 3.9 84 232 1.7 3.9 1012.3 0.0000 0.2000
07:54 6.3 3.8 84 231 1.4 3.3 1012.7 0.0000 0.2000
08:05 6.2 3.7 84 233 1.4 4.2 1012.8 0.0000 0.2000
08:15 6.2 3.7 84 233 1.1 2.5 1012.9 0.0000 0.2000
08:25 6.2 3.7 84 233 1.4 2.8 1013 0.0000 0.2000
08:34 6.2 3.7 84 238 1.4 3.9 1012.9 0.0000 0.2000
08:45 6.2 3.7 84 226 1.1 3.6 1013 0.0000 0.2000
08:55 6.3 3.8 84 215 1.1 2.8 1013 0.0000 0.2000
09:05 6.4 3.9 84 230 1.7 4.2 1013.1 0.0000 0.2000
09:15 6.4 3.9 84 232 1.4 3.9 1013.2 0.0000 0.2000
09:28 6.6 4.1 84 232 1.7 6.1 1013.4 0.0000 0.2000
09:39 6.7 4.2 84 241 1.7 6.1 1013.4 0.0000 0.2000
09:49 6.7 4.2 84 229 1.4 3.3 1013.4 0.0000 0.2000
09:59 6.8 4.1 83 240 1.4 6.4 1013.3 0.0000 0.2000
10:08 6.9 4.2 83 232 1.4 4.2 1013.5 0.1010 0.3000
10:19 7 4.3 83 229 1.4 5.3 1013.5 0.1010 0.3000
10:29 7.1 4.4 83 226 1.4 4.2 1013.5 0.1010 0.3000
10:39 7.3 4.6 83 242 1.4 3.6 1013.4 0.1010 0.3000
10:49 7.4 4.7 83 231 1.4 3.3 1013.6 0.1010 0.3000
10:59 7.6 4.9 83 241 1.4 4.7 1013.7 0.0000 0.3000
11:09 7.8 4.9 82 236 2.5 6.1 1013.7 0.0000 0.3000
11:19 7.9 4.8 81 238 2.2 6.1 1013.7 0.0000 0.3000
11:30 8 4.9 81 233 1.4 5 1013.9 0.0000 0.3000
11:39 7.9 4.8 81 233 2.2 5.8 1013.9 0.0000 0.3000
11:49 8 4.9 81 232 1.7 5.3 1013.9 0.0000 0.3000
11:59 8 4.8 80 232 2.2 5.3 1013.8 0.0000 0.3000
12:10 8 4.8 80 235 2.2 5.8 1013.9 0.0000 0.3000
12:19 8.1 4.9 80 235 2.2 5 1013.9 0.0000 0.3000
12:29 8.2 5 80 241 2.2 6.4 1013.8 0.0000 0.3000
12:40 8.4 5.2 80 234 2.5 5 1014 0.0000 0.3000
12:50 8.4 5.2 80 235 2.2 7.2 1014 0.0000 0.3000
12:59 8.4 5.2 80 238 1.4 3.9 1013.8 0.0000 0.3000
13:10 8.4 5 79 233 1.7 3.9 1013.9 0.0000 0.3000
13:20 8.4 5.2 80 240 1.4 4.7 1013.8 0.0000 0.3000
13:30 8.5 5.3 80 233 1.7 5 1013.9 0.0000 0.3000
13:40 8.5 5.3 80 237 1.7 4.2 1013.8 0.0000 0.3000
13:50 8.5 5.3 80 234 1.7 4.7 1013.9 0.0000 0.3000
14:00 8.5 5.3 80 231 1.7 4.7 1013.9 0.0000 0.3000
14:10 8.4 5.2 80 232 1.7 3.6 1013.8 0.0000 0.3000
14:20 8.3 5.2 81 227 2.2 3.3 1014 0.0000 0.3000
14:30 8.2 5.1 81 226 1.7 3.3 1014 0.1010 0.4000
14:40 8.1 5 81 235 2.2 4.2 1014.1 0.3031 0.6000
14:50 8.1 5.2 82 232 2.2 5.8 1014.1 0.3031 0.6000
15:00 8.2 5.3 82 229 1.7 4.7 1014.2 0.3031 0.6000
15:10 8.2 5.3 82 234 2.2 4.7 1014.4 0.3031 0.6000
15:20 8.3 5.4 82 239 2.2 5 1014.3 0.3031 0.6000
15:31 8.3 5.4 82 233 2.2 5 1014.4 0.3031 0.7000
15:40 8.2 5.3 82 233 1.4 2.5 1014.5 0.1010 0.7000
15:50 8.2 5.3 82 233 1.4 3.6 1014.6 0.1010 0.7000
16:00 8.1 5.2 82 233 2.2 6.1 1014.6 0.1010 0.7000
16:11 8.1 5.4 83 234 1.7 4.7 1014.6 0.1010 0.7000
16:20 8.1 5.4 83 235 1.7 3.9 1014.7 0.1010 0.7000
16:30 8.1 5.4 83 235 2.2 4.7 1014.8 0.0000 0.7000
16:41 8.1 5.4 83 231 1.7 4.7 1014.8 0.0000 0.7000
16:51 8.1 5.4 83 233 1.7 3.6 1014.9 0.0000 0.7000
17:00 8.1 5.2 82 235 1.7 4.2 1015 0.0000 0.7000
17:13 8.1 5.2 82 234 1.7 7.2 1015.1 0.0000 0.7000
17:23 8 5.1 82 235 1.7 3.9 1015.2 0.0000 0.7000
17:33 8 5.1 82 234 1.7 5 1015.2 0.0000 0.7000

DAY STATISTIC

2019-02-19
TEMPERATURE
AVERAGE
7.2
HIGH
8.5
13:30
LOW
5.7
00:33
PRESSURE
AVERAGE
1013.0
HIGH
1015.2
17:23
LOW
1011.4
00:33
DEWPOINT
AVERAGE
4.3
HIGH
5.4
15:20
LOW
2.1
00:22
HUMIDITY
AVERAGE
82
HIGH
84
04:44
LOW
76
00:02
WIND SPEED
AVERAGE
1.4
HIGH
2.5
11:09
WIND GUST
AVERAGE
3.7
HIGH
7.2
12:50
WIND DIRECTION
PREVAILING
SW
90.3%
N
0.0
NE
0.0
E
8.7
SE
0.0
S
0.0
SW
90.3
W
1.0
NW
0.0
PRECIPITATION
RAIN HOUR
0.3
RAIN DAY
0.7
TEMPERATURE (°C)
LOW
5.7
HIGH
8.5
AVERAGE
7.2
PRESSURE (hpa)
LOW
1011.4
HIGH
1015.2
AVERAGE
1013.0
DEVICE